SBAF

Details ICAO SBAF
Name Campo Delio Jardim de Mattos
Region Brazil
Timezone America/Sao_Paulo (UTC-3.0)
Plans Departing 8
Arriving 6
Stats Elevation 110 ft / 34 m (AMSL)
Location -22.875083° -43.384709°
Runways 1
Magnetic Variation 22.754° W
Sunrise 2018-05-21 09:23:23 UTC / 2018-05-21 06:23:23 Local
Sunset 2018-05-21 20:19:45 UTC / 2018-05-21 17:19:45 Local
Advertisement - Login to hide

Runways

ID Width Length Bearing (true) Bearing (mag) Surface Threshold Offset Overrun Length
08 171 ft / 52 m 6,527 ft / 1,990 m 61.63° 84.38° Concrete 0 ft / 0 m 0 ft / 0 m
26 171 ft / 52 m 6,527 ft / 1,990 m 241.63° 264.38° Concrete 0 ft / 0 m 0 ft / 0 m

Approach Navaids

Runway Type Ident Frequency Range Bearing (true) Bearing (mag) Slope Elevation
26 Localiser IAF 109.70 MHz 18 nm / 33 km 240.18° 262.94° - 110 ft / 34 m (AMSL)

Map

Weather


0- 5 10 15 20 25 30 35+ Temperature / ° C

Clouds and Precipitation
Forecast for 2018-05-21 18:00 UTC. Updated 2 hours ago

Ground ~20,000 ft ~40,000 ft Winds

METAR

SBAF 211800Z 23011KT CAVOK 24/12 Q1016

TAF

TAF TAF SBAF 211415Z 2118/2206 36003KT 9999 FEW030 TX27/2118Z TN18/2205Z BECMG 2120/2122 27005KT CAVOK RMK PDV

Frequencies

Ground 121.85 MHz AFONSOS
Approach 119.35 MHz RIO APP
Tower 118.90 MHz AFONSOS TWR
Warning: Do not use this data for real-world aviation or navigation. No guarantee of current accuracy is given.